AFR6743 RJAA-LFPG
Flight info
| Callsign | AFR6743 |
|---|---|
| Flight time | N/A |
| Altitude | 33000 |
| Route | GULBO Y808 PUTER A590 PASRO/N0484F340 A590 POWAL/N0490F330 DCT HEDMI DCT NATES DCT ROCET/N0479F350 DCT IDROD DCT CIVED DCT BRW DCT AGMIF DCT 78N130W 79N120W/N0486F370 80N100W 80N090W DCT DEXUN/M083F370 DCT 77N060W 73N040W 70N030W 6630N02000W/M083F390 DCT RATSU/N0483F390 DCT BARKU DCT ORSUM DCT GOW DCT AKOMU DCT VAMEB UL612 MID/N0469F290 Y803 SFD UM605 BIBAX |
| Aircraft | B77L/H-SDE1E2E3FGHIJ2J3J4J5M1RWXY/LB1D1 |
Departure
| Time | N/A |
|---|---|
| Airport | Narita International Airport (RJAA) |
Arrival
| Time | 2026-05-07 06:09 |
|---|---|
| Airport | Charles de Gaulle International Airport (LFPG) |
| Time | Latitude | Longitude | Altitude | Speed | Heading |
|---|---|---|---|---|---|
| 2026-05-07 04:58 | 54.44621 | -3.16670 | 39009 ft | 486 kts | 154° |
| 2026-05-07 04:59 | 54.38547 | -3.11431 | 39024 ft | 486 kts | 154° |
| 2026-05-07 04:59 | 54.32501 | -3.06245 | 39040 ft | 485 kts | 154° |
| 2026-05-07 05:00 | 54.26467 | -3.01086 | 39024 ft | 484 kts | 154° |
| 2026-05-07 05:00 | 54.20479 | -2.95975 | 39022 ft | 484 kts | 154° |
| 2026-05-07 05:01 | 54.14399 | -2.91046 | 39024 ft | 483 kts | 157° |
| 2026-05-07 05:01 | 54.08208 | -2.86605 | 39039 ft | 483 kts | 158° |
| 2026-05-07 05:02 | 54.02016 | -2.82152 | 39021 ft | 484 kts | 157° |
| 2026-05-07 05:02 | 53.95820 | -2.77680 | 39033 ft | 484 kts | 157° |
| 2026-05-07 05:03 | 53.89605 | -2.73228 | 39035 ft | 485 kts | 157° |
| 2026-05-07 05:03 | 53.83397 | -2.68734 | 39039 ft | 485 kts | 157° |
| 2026-05-07 05:04 | 53.77193 | -2.64252 | 39044 ft | 485 kts | 157° |
| 2026-05-07 05:04 | 53.70975 | -2.59802 | 39042 ft | 485 kts | 157° |
| 2026-05-07 05:05 | 53.64766 | -2.55373 | 39042 ft | 484 kts | 158° |
| 2026-05-07 05:05 | 53.58572 | -2.50962 | 39036 ft | 483 kts | 157° |
| 2026-05-07 05:06 | 53.52434 | -2.46589 | 39046 ft | 482 kts | 157° |
| 2026-05-07 05:06 | 53.46269 | -2.42213 | 39046 ft | 481 kts | 158° |
| 2026-05-07 05:07 | 53.40109 | -2.37868 | 39049 ft | 480 kts | 158° |
| 2026-05-07 05:07 | 53.33948 | -2.33536 | 39048 ft | 480 kts | 158° |
| 2026-05-07 05:08 | 53.27796 | -2.29218 | 39050 ft | 480 kts | 158° |
| 2026-05-07 05:08 | 53.21629 | -2.24928 | 39040 ft | 480 kts | 158° |
| 2026-05-07 05:09 | 53.15445 | -2.20687 | 39049 ft | 480 kts | 158° |
| 2026-05-07 05:09 | 53.09270 | -2.16435 | 39055 ft | 480 kts | 158° |
| 2026-05-07 05:10 | 53.03136 | -2.12189 | 39052 ft | 481 kts | 158° |
| 2026-05-07 05:10 | 52.96920 | -2.07899 | 39045 ft | 481 kts | 158° |
| 2026-05-07 05:11 | 52.90780 | -2.03678 | 39051 ft | 480 kts | 158° |
| 2026-05-07 05:11 | 52.84603 | -1.99447 | 39061 ft | 480 kts | 158° |
| 2026-05-07 05:12 | 52.78430 | -1.95233 | 39057 ft | 480 kts | 158° |
| 2026-05-07 05:12 | 52.72259 | -1.91032 | 39051 ft | 480 kts | 158° |
| 2026-05-07 05:13 | 52.66085 | -1.86842 | 39064 ft | 480 kts | 158° |
| 2026-05-07 05:13 | 52.59906 | -1.82660 | 39072 ft | 480 kts | 158° |
| 2026-05-07 05:14 | 52.53725 | -1.78491 | 39077 ft | 480 kts | 158° |
| 2026-05-07 05:14 | 52.47534 | -1.74327 | 39076 ft | 480 kts | 158° |
| 2026-05-07 05:15 | 52.41378 | -1.70198 | 39077 ft | 481 kts | 158° |
| 2026-05-07 05:15 | 52.35197 | -1.66018 | 39073 ft | 481 kts | 156° |
| 2026-05-07 05:16 | 52.29213 | -1.61152 | 39068 ft | 481 kts | 153° |
| 2026-05-07 05:16 | 52.23232 | -1.56194 | 39069 ft | 481 kts | 154° |
| 2026-05-07 05:17 | 52.17254 | -1.51298 | 39077 ft | 481 kts | 154° |
| 2026-05-07 05:17 | 52.11268 | -1.46428 | 39071 ft | 481 kts | 154° |
| 2026-05-07 05:18 | 52.05277 | -1.41566 | 39068 ft | 481 kts | 154° |
| 2026-05-07 05:18 | 51.99283 | -1.36689 | 39050 ft | 482 kts | 154° |
| 2026-05-07 05:19 | 51.93281 | -1.31831 | 39051 ft | 482 kts | 154° |
| 2026-05-07 05:19 | 51.87309 | -1.27032 | 39049 ft | 482 kts | 154° |
| 2026-05-07 05:20 | 51.81252 | -1.22176 | 39049 ft | 483 kts | 154° |
| 2026-05-07 05:20 | 51.75238 | -1.17363 | 39047 ft | 483 kts | 154° |
| 2026-05-07 05:21 | 51.66250 | -1.10196 | 39049 ft | 483 kts | 154° |
| 2026-05-07 05:22 | 51.60313 | -1.05141 | 39042 ft | 483 kts | 148° |
| 2026-05-07 05:22 | 51.54847 | -0.98850 | 39048 ft | 483 kts | 144° |
| 2026-05-07 05:23 | 51.49386 | -0.92532 | 39051 ft | 484 kts | 145° |
| 2026-05-07 05:23 | 51.44677 | -0.87705 | 39053 ft | 483 kts | 153° |
| 2026-05-07 05:24 | 51.38524 | -0.83424 | 39060 ft | 482 kts | 160° |
| 2026-05-07 05:24 | 51.32269 | -0.79534 | 39047 ft | 482 kts | 159° |
| 2026-05-07 05:25 | 51.26031 | -0.75590 | 39050 ft | 482 kts | 159° |
| 2026-05-07 05:25 | 51.19788 | -0.71614 | 39049 ft | 483 kts | 159° |
| 2026-05-07 05:26 | 51.13588 | -0.67676 | 39050 ft | 483 kts | 159° |
| 2026-05-07 05:26 | 51.07492 | -0.63243 | 39051 ft | 483 kts | 146° |
| 2026-05-07 05:27 | 51.02708 | -0.55974 | 39057 ft | 485 kts | 125° |
| 2026-05-07 05:27 | 50.99185 | -0.46866 | 39057 ft | 485 kts | 121° |
| 2026-05-07 05:28 | 50.95716 | -0.37664 | 39050 ft | 486 kts | 122° |
| 2026-05-07 05:28 | 50.92174 | -0.28513 | 39049 ft | 487 kts | 122° |
| 2026-05-07 05:29 | 50.90320 | -0.23785 | 39048 ft | 487 kts | 122° |
| 2026-05-07 05:33 | 50.89807 | -0.22480 | 39048 ft | 488 kts | 122° |
| 2026-05-07 05:33 | 50.86290 | -0.13550 | 39042 ft | 488 kts | 122° |
| 2026-05-07 05:34 | 50.82691 | -0.04427 | 39048 ft | 489 kts | 122° |
| 2026-05-07 05:34 | 50.79086 | 0.04683 | 39044 ft | 489 kts | 123° |
| 2026-05-07 05:35 | 50.74970 | 0.13112 | 39051 ft | 487 kts | 134° |
| 2026-05-07 05:35 | 50.69937 | 0.20232 | 39053 ft | 485 kts | 142° |
| 2026-05-07 05:36 | 50.64638 | 0.26831 | 39038 ft | 485 kts | 142° |
| 2026-05-07 05:36 | 50.61982 | 0.30179 | 38481 ft | 494 kts | 142° |
| 2026-05-07 05:36 | 50.59298 | 0.33589 | 37687 ft | 494 kts | 142° |
| 2026-05-07 05:36 | 50.56628 | 0.36990 | 36854 ft | 493 kts | 142° |
| 2026-05-07 05:37 | 50.53971 | 0.40374 | 36127 ft | 490 kts | 142° |
| 2026-05-07 05:37 | 50.51327 | 0.43737 | 35417 ft | 487 kts | 142° |
| 2026-05-07 05:37 | 50.48703 | 0.47068 | 34718 ft | 484 kts | 142° |
| 2026-05-07 05:37 | 50.46095 | 0.50370 | 34048 ft | 481 kts | 142° |
| 2026-05-07 05:38 | 50.43497 | 0.53650 | 33242 ft | 478 kts | 142° |
| 2026-05-07 05:38 | 50.40916 | 0.56905 | 32465 ft | 475 kts | 142° |
| 2026-05-07 05:38 | 50.38347 | 0.60140 | 31717 ft | 472 kts | 142° |
| 2026-05-07 05:38 | 50.35788 | 0.63359 | 30993 ft | 470 kts | 142° |
| 2026-05-07 05:39 | 50.33252 | 0.66548 | 30346 ft | 466 kts | 142° |
| 2026-05-07 05:39 | 50.30737 | 0.69710 | 29634 ft | 462 kts | 142° |
| 2026-05-07 05:39 | 50.28241 | 0.72845 | 28925 ft | 458 kts | 142° |
| 2026-05-07 05:39 | 50.25773 | 0.75944 | 28290 ft | 452 kts | 142° |
| 2026-05-07 05:40 | 50.23329 | 0.79008 | 27668 ft | 447 kts | 142° |
| 2026-05-07 05:40 | 50.20914 | 0.82031 | 27039 ft | 443 kts | 142° |
| 2026-05-07 05:40 | 50.18520 | 0.85023 | 26460 ft | 438 kts | 142° |
| 2026-05-07 05:40 | 50.16182 | 0.87934 | 25956 ft | 432 kts | 143° |
| 2026-05-07 05:41 | 50.13820 | 0.90866 | 25533 ft | 425 kts | 143° |
| 2026-05-07 05:41 | 50.11523 | 0.93713 | 25118 ft | 419 kts | 143° |
| 2026-05-07 05:41 | 50.09284 | 0.96488 | 24688 ft | 414 kts | 143° |
| 2026-05-07 05:41 | 50.07042 | 0.99263 | 24278 ft | 408 kts | 143° |
| 2026-05-07 05:42 | 50.04767 | 1.01841 | 23865 ft | 401 kts | 150° |
| 2026-05-07 05:42 | 50.02312 | 1.03828 | 23439 ft | 395 kts | 156° |
| 2026-05-07 05:42 | 49.99831 | 1.05617 | 22974 ft | 391 kts | 157° |
| 2026-05-07 05:42 | 49.97371 | 1.07358 | 22502 ft | 387 kts | 157° |
| 2026-05-07 05:43 | 49.94932 | 1.09100 | 22029 ft | 384 kts | 156° |
| 2026-05-07 05:43 | 49.92517 | 1.10854 | 21570 ft | 381 kts | 156° |
| 2026-05-07 05:43 | 49.90123 | 1.12615 | 21128 ft | 379 kts | 156° |
| 2026-05-07 05:43 | 49.87755 | 1.14372 | 20702 ft | 376 kts | 155° |
| 2026-05-07 05:44 | 49.85396 | 1.16129 | 20273 ft | 374 kts | 155° |
| 2026-05-07 05:44 | 49.83058 | 1.17874 | 19851 ft | 372 kts | 155° |
| 2026-05-07 05:44 | 49.80740 | 1.19605 | 19510 ft | 368 kts | 155° |
| 2026-05-07 05:44 | 49.78443 | 1.21320 | 19160 ft | 365 kts | 155° |
| 2026-05-07 05:45 | 49.76151 | 1.23028 | 18824 ft | 366 kts | 155° |
| 2026-05-07 05:45 | 49.73849 | 1.24742 | 18491 ft | 368 kts | 155° |
| 2026-05-07 05:45 | 49.71537 | 1.26461 | 18134 ft | 368 kts | 155° |
| 2026-05-07 05:45 | 49.69234 | 1.28173 | 17769 ft | 367 kts | 155° |
| 2026-05-07 05:46 | 49.66936 | 1.29879 | 17381 ft | 366 kts | 155° |
| 2026-05-07 05:46 | 49.64647 | 1.31576 | 17012 ft | 364 kts | 155° |
| 2026-05-07 05:46 | 49.62369 | 1.33263 | 16657 ft | 363 kts | 155° |
| 2026-05-07 05:46 | 49.60128 | 1.34921 | 16285 ft | 361 kts | 155° |
| 2026-05-07 05:47 | 49.57841 | 1.36612 | 15924 ft | 359 kts | 155° |
| 2026-05-07 05:47 | 49.55625 | 1.38248 | 15584 ft | 357 kts | 155° |
| 2026-05-07 05:47 | 49.53396 | 1.39892 | 15225 ft | 355 kts | 155° |
| 2026-05-07 05:47 | 49.51172 | 1.41531 | 14868 ft | 353 kts | 155° |
| 2026-05-07 05:48 | 49.48968 | 1.43154 | 14574 ft | 350 kts | 155° |
| 2026-05-07 05:48 | 49.46790 | 1.44756 | 14278 ft | 343 kts | 156° |
| 2026-05-07 05:48 | 49.44657 | 1.46324 | 13989 ft | 336 kts | 156° |
| 2026-05-07 05:48 | 49.42568 | 1.47858 | 13662 ft | 329 kts | 156° |
| 2026-05-07 05:49 | 49.40526 | 1.49355 | 13358 ft | 322 kts | 155° |
| 2026-05-07 05:49 | 49.38528 | 1.50820 | 12944 ft | 312 kts | 155° |
| 2026-05-07 05:49 | 49.36593 | 1.52237 | 12537 ft | 306 kts | 155° |
| 2026-05-07 05:49 | 49.34683 | 1.53633 | 12156 ft | 303 kts | 155° |
| 2026-05-07 05:50 | 49.32788 | 1.55016 | 11761 ft | 300 kts | 155° |
| 2026-05-07 05:50 | 49.31074 | 1.56738 | 11357 ft | 296 kts | 133° |
| 2026-05-07 05:50 | 49.30030 | 1.59438 | 11013 ft | 297 kts | 108° |
| 2026-05-07 05:50 | 49.29695 | 1.62535 | 10728 ft | 295 kts | 93° |
| 2026-05-07 05:51 | 49.29585 | 1.65664 | 10442 ft | 294 kts | 93° |
| 2026-05-07 05:51 | 49.29466 | 1.68773 | 10231 ft | 290 kts | 93° |
| 2026-05-07 05:51 | 49.29338 | 1.71831 | 10106 ft | 284 kts | 93° |
| 2026-05-07 05:51 | 49.29207 | 1.74835 | 10030 ft | 284 kts | 93° |
| 2026-05-07 05:52 | 49.29072 | 1.77895 | 9973 ft | 290 kts | 94° |
| 2026-05-07 05:52 | 49.28931 | 1.81011 | 9901 ft | 295 kts | 94° |
| 2026-05-07 05:52 | 49.28789 | 1.84148 | 9822 ft | 294 kts | 94° |
| 2026-05-07 05:52 | 49.28648 | 1.87236 | 9742 ft | 293 kts | 94° |
| 2026-05-07 05:53 | 49.28505 | 1.90350 | 9675 ft | 292 kts | 94° |
| 2026-05-07 05:53 | 49.28361 | 1.93455 | 9591 ft | 292 kts | 94° |
| 2026-05-07 05:53 | 49.28218 | 1.96551 | 9509 ft | 291 kts | 94° |
| 2026-05-07 05:53 | 49.28073 | 1.99635 | 9427 ft | 290 kts | 94° |
| 2026-05-07 05:54 | 49.27929 | 2.02712 | 9348 ft | 289 kts | 94° |
| 2026-05-07 05:54 | 49.27783 | 2.05782 | 9268 ft | 288 kts | 94° |
| 2026-05-07 05:54 | 49.27638 | 2.08838 | 9187 ft | 288 kts | 94° |
| 2026-05-07 05:54 | 49.27492 | 2.11895 | 9098 ft | 287 kts | 94° |
| 2026-05-07 05:55 | 49.27345 | 2.14943 | 9031 ft | 287 kts | 94° |
| 2026-05-07 05:55 | 49.27198 | 2.17987 | 8952 ft | 286 kts | 94° |
| 2026-05-07 05:55 | 49.27051 | 2.21025 | 8868 ft | 286 kts | 94° |
| 2026-05-07 05:55 | 49.26902 | 2.24061 | 8789 ft | 286 kts | 94° |
| 2026-05-07 05:56 | 49.26755 | 2.27058 | 8711 ft | 286 kts | 94° |
| 2026-05-07 05:56 | 49.26607 | 2.30092 | 8632 ft | 286 kts | 94° |
| 2026-05-07 05:56 | 49.26456 | 2.33125 | 8557 ft | 285 kts | 94° |
| 2026-05-07 05:56 | 49.26305 | 2.36155 | 8473 ft | 285 kts | 94° |
| 2026-05-07 05:57 | 49.26152 | 2.39192 | 8393 ft | 285 kts | 94° |
| 2026-05-07 05:57 | 49.26000 | 2.42218 | 8312 ft | 285 kts | 94° |
| 2026-05-07 05:57 | 49.25847 | 2.45239 | 8235 ft | 285 kts | 94° |
| 2026-05-07 05:57 | 49.25692 | 2.48266 | 8155 ft | 284 kts | 94° |
| 2026-05-07 05:58 | 49.25538 | 2.51240 | 8077 ft | 284 kts | 95° |
| 2026-05-07 05:58 | 49.25267 | 2.54269 | 7989 ft | 283 kts | 100° |
| 2026-05-07 05:58 | 49.24900 | 2.57226 | 7922 ft | 283 kts | 101° |
| 2026-05-07 05:58 | 49.24528 | 2.60181 | 7842 ft | 282 kts | 101° |
| 2026-05-07 05:59 | 49.24172 | 2.63093 | 7764 ft | 282 kts | 101° |
| 2026-05-07 05:59 | 49.23818 | 2.66041 | 7680 ft | 281 kts | 100° |
| 2026-05-07 05:59 | 49.23468 | 2.68978 | 7601 ft | 281 kts | 100° |
| 2026-05-07 05:59 | 49.23119 | 2.71920 | 7536 ft | 281 kts | 100° |
| 2026-05-07 06:00 | 49.22769 | 2.74857 | 7455 ft | 280 kts | 100° |
| 2026-05-07 06:00 | 49.22421 | 2.77780 | 7384 ft | 280 kts | 100° |
| 2026-05-07 06:00 | 49.22071 | 2.80716 | 7308 ft | 280 kts | 100° |
| 2026-05-07 06:00 | 49.21722 | 2.83641 | 7231 ft | 279 kts | 100° |
| 2026-05-07 06:01 | 49.21372 | 2.86557 | 7150 ft | 279 kts | 100° |
| 2026-05-07 06:01 | 49.21021 | 2.89467 | 7087 ft | 277 kts | 100° |
| 2026-05-07 06:01 | 49.20646 | 2.92348 | 7025 ft | 273 kts | 107° |
| 2026-05-07 06:01 | 49.19701 | 2.94834 | 7027 ft | 275 kts | 137° |
| 2026-05-07 06:02 | 49.18060 | 2.96327 | 6919 ft | 279 kts | 164° |
| 2026-05-07 06:02 | 49.16138 | 2.96623 | 6593 ft | 276 kts | 183° |
| 2026-05-07 06:02 | 49.14218 | 2.96472 | 6274 ft | 275 kts | 183° |
| 2026-05-07 06:02 | 49.12318 | 2.96339 | 5933 ft | 272 kts | 183° |
| 2026-05-07 06:03 | 49.10447 | 2.96212 | 5583 ft | 267 kts | 182° |
| 2026-05-07 06:03 | 49.08601 | 2.96092 | 5246 ft | 263 kts | 182° |
| 2026-05-07 06:03 | 49.06782 | 2.95979 | 4916 ft | 260 kts | 182° |
| 2026-05-07 06:03 | 49.04987 | 2.95869 | 4566 ft | 257 kts | 182° |
| 2026-05-07 06:04 | 49.03214 | 2.95760 | 4211 ft | 252 kts | 183° |
| 2026-05-07 06:04 | 49.01593 | 2.95098 | 3945 ft | 236 kts | 218° |
| 2026-05-07 06:04 | 49.00699 | 2.93114 | 3973 ft | 230 kts | 259° |
| 2026-05-07 06:04 | 49.00835 | 2.90738 | 3977 ft | 226 kts | 285° |
| 2026-05-07 06:05 | 49.01003 | 2.88382 | 3971 ft | 231 kts | 265° |
| 2026-05-07 06:05 | 49.00817 | 2.85921 | 3672 ft | 236 kts | 266° |
| 2026-05-07 06:05 | 49.00705 | 2.83451 | 3400 ft | 231 kts | 267° |
| 2026-05-07 06:05 | 49.00591 | 2.81061 | 3120 ft | 221 kts | 266° |
| 2026-05-07 06:06 | 49.00472 | 2.78776 | 2790 ft | 211 kts | 266° |
| 2026-05-07 06:06 | 49.00357 | 2.76636 | 2497 ft | 193 kts | 266° |
| 2026-05-07 06:06 | 49.00253 | 2.74699 | 2250 ft | 176 kts | 266° |
| 2026-05-07 06:06 | 49.00161 | 2.72939 | 2029 ft | 156 kts | 266° |
| 2026-05-07 06:07 | 49.00079 | 2.71395 | 1819 ft | 139 kts | 267° |
| 2026-05-07 06:07 | 49.00002 | 2.69920 | 1648 ft | 140 kts | 267° |
| 2026-05-07 06:07 | 48.99923 | 2.68441 | 1454 ft | 139 kts | 266° |
| 2026-05-07 06:07 | 48.99845 | 2.66977 | 1245 ft | 138 kts | 266° |
| 2026-05-07 06:08 | 48.99767 | 2.65526 | 1056 ft | 137 kts | 266° |
| 2026-05-07 06:08 | 48.99691 | 2.64075 | 861 ft | 138 kts | 265° |
| 2026-05-07 06:08 | 48.99605 | 2.62633 | 688 ft | 136 kts | 267° |
| 2026-05-07 06:08 | 48.99531 | 2.61187 | 522 ft | 138 kts | 267° |
| 2026-05-07 06:09 | 48.99483 | 2.60218 | 404 ft | 139 kts | 266° |
| 2026-05-07 06:09 | 48.99411 | 2.58818 | 366 ft | 122 kts | 265° |
| 2026-05-07 06:09 | 48.99339 | 2.57466 | 363 ft | 68 kts | 265° |
| 2026-05-07 06:09 | 48.99318 | 2.57081 | 357 ft | 40 kts | 266° |
| 2026-05-07 06:10 | 48.99363 | 2.56711 | 366 ft | 18 kts | 310° |
| 2026-05-07 06:10 | 48.99434 | 2.56648 | 368 ft | 18 kts | 348° |
| 2026-05-07 06:10 | 48.99576 | 2.56630 | 359 ft | 14 kts | 355° |
| 2026-05-07 06:10 | 48.99641 | 2.56622 | 367 ft | 14 kts | 355° |
| 2026-05-07 06:11 | 48.99743 | 2.56608 | 366 ft | 15 kts | 354° |
| 2026-05-07 06:11 | 48.99817 | 2.56536 | 365 ft | 13 kts | 296° |
| 2026-05-07 06:11 | 48.99820 | 2.56395 | 359 ft | 14 kts | 264° |
| 2026-05-07 06:11 | 48.99810 | 2.56243 | 364 ft | 15 kts | 264° |
| 2026-05-07 06:12 | 48.99801 | 2.56084 | 367 ft | 15 kts | 266° |
| 2026-05-07 06:12 | 48.99803 | 2.55920 | 366 ft | 16 kts | 278° |
| 2026-05-07 06:12 | 48.99830 | 2.55759 | 365 ft | 16 kts | 287° |
| 2026-05-07 06:12 | 48.99881 | 2.55612 | 363 ft | 16 kts | 313° |
| 2026-05-07 06:13 | 48.99964 | 2.55530 | 366 ft | 13 kts | 319° |
| 2026-05-07 06:13 | 48.99982 | 2.55401 | 364 ft | 16 kts | 264° |
| 2026-05-07 06:13 | 48.99970 | 2.55166 | 359 ft | 23 kts | 266° |
| 2026-05-07 06:13 | 48.99956 | 2.54918 | 361 ft | 23 kts | 265° |
| 2026-05-07 06:14 | 48.99943 | 2.54672 | 365 ft | 21 kts | 266° |
| 2026-05-07 06:14 | 48.99933 | 2.54486 | 359 ft | 15 kts | 265° |
| 2026-05-07 06:14 | 48.99927 | 2.54361 | 364 ft | 11 kts | 265° |
| 2026-05-07 06:14 | 48.99922 | 2.54257 | 362 ft | 4 kts | 270° |
| 2026-05-07 06:15 | 48.99938 | 2.54220 | 365 ft | 5 kts | 322° |
| 2026-05-07 06:15 | 48.99972 | 2.54204 | 365 ft | 6 kts | 348° |
| 2026-05-07 06:15 | 49.00001 | 2.54199 | 363 ft | 1 kts | 355° |
| 2026-05-07 06:15 | 49.00003 | 2.54199 | 364 ft | 0 kts | 355° |